Time;durP1;ratioP1;P1;durP2;ratioP2;P2;SDS_P1;SDS_P2;PMS_P1;PMS_P2;Temp;Humidity;BMP_temperature;BMP_pressure;BME280_temperature;BME280_humidity;BME280_pressure;Samples;Min_cycle;Max_cycle;Signal;HPM_P1;HPM_P2
2022/08/20 00:01:09;;;;;;;;;;;;;;;17.11;46.46;100209.25;5078007;28;19950;-88
2022/08/20 00:03:37;;;;;;;;;;;;;;;17.16;46.47;100211.19;5095461;28;19958;-86
2022/08/20 00:06:11;;;;;;;;;;;;;;;17.18;46.58;100203.59;5095308;28;19934;-88
2022/08/20 00:08:38;;;;;;;;;;;;;;;17.17;46.90;100214.78;5079425;28;20346;-88
2022/08/20 00:11:07;;;;;;;;;;;;;;;17.19;47.23;100215.31;5085148;28;19967;-86
2022/08/20 00:13:37;;;;;;;;;;;;;;;17.17;47.44;100218.31;5096029;28;19928;-87
2022/08/20 00:16:05;;;;;;;;;;;;;;;17.16;47.80;100222.13;5097313;28;19928;-87
2022/08/20 00:18:32;;;;;;;;;;;;;;;17.15;48.03;100225.13;5095066;28;19974;-88
2022/08/20 00:20:59;;;;;;;;;;;;;;;17.14;48.50;100227.00;5076885;28;19939;-88
2022/08/20 00:23:26;;;;;;;;;;;;;;;17.10;48.69;100228.63;5095648;28;19928;-87
2022/08/20 00:25:54;;;;;;;;;;;;;;;17.05;49.13;100225.84;5097229;28;19990;-88
2022/08/20 00:28:21;;;;;;;;;;;;;;;16.97;49.65;100218.13;5077352;28;19934;-88
2022/08/20 00:30:48;;;;;;;;;;;;;;;16.87;50.00;100208.75;5094870;28;20091;-87
2022/08/20 00:33:16;;;;;;;;;;;;;;;16.82;50.38;100216.06;5094693;28;19928;-87
2022/08/20 00:35:45;;;;;;;;;;;;;;;16.71;50.91;100206.06;5076959;28;20061;-87
2022/08/20 00:38:12;;;;;;;;;;;;;;;16.67;51.14;100205.78;5099575;28;19957;-87
2022/08/20 00:40:44;;;;;;;;;;;;;;;16.57;51.38;100213.84;5114857;28;20147;-87
2022/08/20 00:43:29;;;;;;;;;;;;;;;16.46;51.71;100219.16;5078986;28;19927;-85
2022/08/20 00:45:58;;;;;;;;;;;;;;;16.37;51.88;100209.78;5114511;28;19936;-87
2022/08/20 00:48:27;;;;;;;;;;;;;;;16.33;52.17;100211.38;5096655;28;19931;-85
2022/08/20 00:50:56;;;;;;;;;;;;;;;16.27;52.47;100217.00;5114709;28;19928;-87
2022/08/20 00:53:23;;;;;;;;;;;;;;;16.23;52.71;100213.97;5116539;28;20031;-87
2022/08/20 00:55:50;;;;;;;;;;;;;;;16.17;52.75;100209.53;5099249;28;19970;-86
2022/08/20 00:58:17;;;;;;;;;;;;;;;16.11;53.21;100214.06;5098329;28;19932;-88
2022/08/20 01:00:45;;;;;;;;;;;;;;;16.04;53.27;100213.44;5096627;28;20416;-88
2022/08/20 01:03:13;;;;;;;;;;;;;;;16.01;53.47;100216.66;5091049;28;19932;-87
2022/08/20 01:05:45;;;;;;;;;;;;;;;15.98;53.78;100218.00;5083748;28;20251;-86
2022/08/20 01:08:12;;;;;;;;;;;;;;;15.95;53.72;100221.22;5102119;28;20044;-88
2022/08/20 01:10:40;;;;;;;;;;;;;;;15.90;53.93;100218.44;5085590;28;19935;-86
2022/08/20 01:13:09;;;;;;;;;;;;;;;15.84;54.16;100215.88;5080842;28;20360;-86
2022/08/20 01:15:38;;;;;;;;;;;;;;;15.80;54.27;100218.28;5086127;28;20356;-87
2022/08/20 01:18:10;;;;;;;;;;;;;;;15.77;54.57;100221.47;5060490;28;19973;-88
2022/08/20 01:20:39;;;;;;;;;;;;;;;15.73;54.77;100218.44;5083896;28;19932;-86
2022/08/20 01:23:29;;;;;;;;;;;;;;;15.70;54.80;100223.53;5083946;28;19977;-85
2022/08/20 01:26:16;;;;;;;;;;;;;;;15.67;54.93;100222.09;5104600;28;20430;-86
2022/08/20 01:28:43;;;;;;;;;;;;;;;15.65;55.15;100221.56;5084746;28;19960;-87
2022/08/20 01:31:14;;;;;;;;;;;;;;;15.61;55.15;100218.47;5105281;28;19973;-87
2022/08/20 01:33:43;;;;;;;;;;;;;;;15.57;55.44;100221.94;5102326;28;19951;-86
2022/08/20 01:36:12;;;;;;;;;;;;;;;15.55;55.46;100230.38;5084845;28;19958;-86
2022/08/20 01:38:39;;;;;;;;;;;;;;;15.52;55.42;100219.13;5068793;28;20019;-86
2022/08/20 01:41:22;;;;;;;;;;;;;;;15.46;55.48;100220.13;5070626;28;20374;-87
2022/08/20 01:43:55;;;;;;;;;;;;;;;15.38;55.80;100224.91;5077839;28;19950;-86
2022/08/20 01:46:31;;;;;;;;;;;;;;;15.38;56.04;100216.75;5086467;28;20344;-87
2022/08/20 01:49:14;;;;;;;;;;;;;;;15.36;55.83;100212.63;5102311;28;19935;-87
2022/08/20 01:51:48;;;;;;;;;;;;;;;15.31;56.03;100218.00;5111533;28;19938;-90
2022/08/20 01:54:15;;;;;;;;;;;;;;;15.31;55.98;100223.44;5113615;28;19973;-86
2022/08/20 01:56:52;;;;;;;;;;;;;;;15.28;55.96;100227.47;5076011;28;19974;-87
2022/08/20 01:59:19;;;;;;;;;;;;;;;15.27;55.96;100230.44;5086594;28;19940;-86
2022/08/20 02:01:46;;;;;;;;;;;;;;;15.25;56.10;100235.31;5102210;28;19928;-87
2022/08/20 02:04:13;;;;;;;;;;;;;;;15.23;56.14;100237.44;5048805;28;19981;-87
2022/08/20 02:06:42;;;;;;;;;;;;;;;15.24;56.10;100228.19;5102675;28;19934;-86
2022/08/20 02:09:24;;;;;;;;;;;;;;;15.24;55.89;100237.16;5084675;28;19934;-86
2022/08/20 02:11:52;;;;;;;;;;;;;;;15.25;55.64;100232.59;5102506;28;19974;-86
2022/08/20 02:14:19;;;;;;;;;;;;;;;15.25;55.80;100233.41;5102713;28;20390;-88
2022/08/20 02:16:46;;;;;;;;;;;;;;;15.26;55.69;100231.50;5085105;28;19928;-88
2022/08/20 02:19:23;;;;;;;;;;;;;;;15.27;55.55;100235.88;5085062;28;20473;-88
2022/08/20 02:21:52;;;;;;;;;;;;;;;15.24;55.57;100239.06;5083710;28;20394;-86
2022/08/20 02:24:19;;;;;;;;;;;;;;;15.22;55.76;100242.06;5082556;28;20025;-87
2022/08/20 02:26:47;;;;;;;;;;;;;;;15.23;55.52;100246.41;5100165;28;19928;-86
2022/08/20 02:29:14;;;;;;;;;;;;;;;15.26;55.65;100245.09;5068279;28;19928;-88
2022/08/20 02:31:43;;;;;;;;;;;;;;;15.24;55.53;100242.59;5084308;28;19963;-85
2022/08/20 02:34:29;;;;;;;;;;;;;;;15.20;55.55;100235.22;5111852;28;20412;-88
2022/08/20 02:36:56;;;;;;;;;;;;;;;15.25;55.49;100246.19;5109900;28;19928;-89
2022/08/20 02:39:25;;;;;;;;;;;;;;;15.29;55.24;100255.47;5094350;28;19927;-90
2022/08/20 02:41:52;;;;;;;;;;;;;;;15.29;55.19;100247.31;5075176;28;20022;-89
2022/08/20 02:44:19;;;;;;;;;;;;;;;15.28;55.19;100259.28;5111616;28;19932;-90
2022/08/20 02:46:48;;;;;;;;;;;;;;;15.28;55.25;100256.56;5091822;28;19935;-89
2022/08/20 02:49:17;;;;;;;;;;;;;;;15.28;55.31;100253.84;5092227;28;19935;-88
2022/08/20 02:51:44;;;;;;;;;;;;;;;15.32;55.23;100252.28;5074253;28;20383;-90
2022/08/20 02:54:13;;;;;;;;;;;;;;;15.34;55.10;100258.28;5110595;28;19932;-90
2022/08/20 02:56:40;;;;;;;;;;;;;;;15.38;54.98;100256.75;5096867;28;19967;-89
2022/08/20 02:59:07;;;;;;;;;;;;;;;15.38;54.95;100254.84;5094646;28;19928;-89
2022/08/20 03:01:36;;;;;;;;;;;;;;;15.37;55.04;100246.94;5060799;28;19937;-88
2022/08/20 03:04:03;;;;;;;;;;;;;;;15.40;55.14;100249.16;5111922;28;19938;-89
2022/08/20 03:06:31;;;;;;;;;;;;;;;15.40;54.98;100251.88;5117550;28;19927;-87
2022/08/20 03:08:58;;;;;;;;;;;;;;;15.42;55.02;100248.91;5099459;28;20317;-89
2022/08/20 03:11:25;;;;;;;;;;;;;;;15.44;54.95;100250.31;5077109;28;19974;-89
2022/08/20 03:13:52;;;;;;;;;;;;;;;15.43;54.89;100245.94;5107557;28;19984;-92
2022/08/20 03:16:19;;;;;;;;;;;;;;;15.46;55.03;100255.50;5072567;28;20314;-90
2022/08/20 03:18:46;;;;;;;;;;;;;;;15.47;54.92;100257.16;5103253;28;20377;-92
2022/08/20 03:21:17;;;;;;;;;;;;;;;15.48;55.07;100259.63;5111526;28;19973;-90
2022/08/20 03:23:44;;;;;;;;;;;;;;;15.50;54.97;100246.63;5094399;28;19953;-90
2022/08/20 03:26:11;;;;;;;;;;;;;;;15.54;54.88;100260.53;5113794;28;19927;-90
2022/08/20 03:28:38;;;;;;;;;;;;;;;15.56;54.85;100256.50;5079004;28;19993;-90
2022/08/20 03:31:06;;;;;;;;;;;;;;;15.62;54.64;100273.72;5106053;28;20590;-92
2022/08/20 03:33:33;;;;;;;;;;;;;;;15.68;54.74;100266.50;5083731;28;19977;-92
2022/08/20 03:36:00;;;;;;;;;;;;;;;15.74;54.64;100262.78;5082336;28;19971;-90
2022/08/20 03:38:27;;;;;;;;;;;;;;;15.82;54.44;100262.38;5091904;28;20026;-88
2022/08/20 03:40:59;;;;;;;;;;;;;;;15.84;54.37;100259.41;5091802;28;20023;-90
2022/08/20 03:43:28;;;;;;;;;;;;;;;15.76;54.59;100268.81;5092223;28;19928;-89
2022/08/20 03:45:55;;;;;;;;;;;;;;;15.70;54.89;100267.94;5092052;28;19954;-91
2022/08/20 03:48:22;;;;;;;;;;;;;;;15.65;55.06;100267.81;5092194;28;19935;-89
2022/08/20 03:50:49;;;;;;;;;;;;;;;15.59;55.08;100264.16;5073772;28;20417;-87
2022/08/20 03:53:16;;;;;;;;;;;;;;;15.63;55.30;100266.41;5088230;28;20661;-89
2022/08/20 03:55:45;;;;;;;;;;;;;;;15.69;55.08;100268.97;5092681;28;20416;-86
2022/08/20 03:58:20;;;;;;;;;;;;;;;15.85;54.79;100277.38;5110958;28;19931;-86
2022/08/20 04:00:58;;;;;;;;;;;;;;;16.04;54.31;100274.16;5108944;28;20420;-87
2022/08/20 04:03:25;;;;;;;;;;;;;;;16.20;53.93;100266.19;4733004;28;10000388;-85
2022/08/20 04:05:52;;;;;;;;;;;;;;;16.30;53.53;100277.25;5091494;28;20420;-88
2022/08/20 04:08:23;;;;;;;;;;;;;;;16.38;53.40;100267.81;5077819;28;19951;-86
2022/08/20 04:10:50;;;;;;;;;;;;;;;16.46;52.83;100272.84;5074465;28;19985;-89
2022/08/20 04:13:18;;;;;;;;;;;;;;;16.54;52.56;100282.47;5079029;28;20499;-86
2022/08/20 04:15:48;;;;;;;;;;;;;;;16.65;52.02;100270.63;5092032;28;20046;-86
2022/08/20 04:18:22;;;;;;;;;;;;;;;16.78;51.88;100269.44;5077760;28;20360;-85
2022/08/20 04:20:50;;;;;;;;;;;;;;;16.89;51.28;100272.03;5083057;28;20389;-84
2022/08/20 04:23:17;;;;;;;;;;;;;;;16.98;50.85;100275.13;5104714;28;19928;-82
2022/08/20 04:25:44;;;;;;;;;;;;;;;17.08;50.74;100283.41;5101353;28;19975;-89
2022/08/20 04:28:13;;;;;;;;;;;;;;;17.15;50.37;100275.03;5102867;28;19928;-90
2022/08/20 04:30:41;;;;;;;;;;;;;;;17.22;50.04;100267.47;5106033;28;19931;-90
2022/08/20 04:33:20;;;;;;;;;;;;;;;17.29;49.83;100275.44;5101449;28;20421;-87
2022/08/20 04:36:04;;;;;;;;;;;;;;;17.37;49.56;100285.91;5092374;28;19928;-87
2022/08/20 04:38:31;;;;;;;;;;;;;;;17.35;49.44;100281.78;5101536;28;19935;-87
2022/08/20 04:41:17;;;;;;;;;;;;;;;17.30;49.82;100277.91;5090193;28;20425;-88
2022/08/20 04:43:50;;;;;;;;;;;;;;;17.22;49.84;100275.66;5068681;28;19934;-84
2022/08/20 04:46:18;;;;;;;;;;;;;;;17.09;50.07;100274.16;5087595;28;19970;-94
2022/08/20 04:48:46;;;;;;;;;;;;;;;16.98;50.26;100274.31;5085536;28;20402;-93
2022/08/20 04:51:16;;;;;;;;;;;;;;;16.89;50.27;100277.50;5081231;28;19996;-91
2022/08/20 04:53:44;;;;;;;;;;;;;;;16.86;50.52;100282.59;5081438;28;20352;-91
2022/08/20 04:56:22;;;;;;;;;;;;;;;16.85;50.42;100275.53;5082516;28;19934;-89
2022/08/20 04:58:50;;;;;;;;;;;;;;;16.89;50.38;100277.50;5102044;28;19932;-85
2022/08/20 05:01:17;;;;;;;;;;;;;;;16.97;50.22;100281.66;5103474;27;19928;-85
2022/08/20 05:03:46;;;;;;;;;;;;;;;17.09;49.97;100273.31;5100977;28;19939;-89
2022/08/20 05:06:16;;;;;;;;;;;;;;;17.21;49.77;100274.00;5104880;28;19931;-89
2022/08/20 05:08:45;;;;;;;;;;;;;;;17.30;49.23;100277.91;5071814;28;19996;-89
2022/08/20 05:11:13;;;;;;;;;;;;;;;17.45;49.10;100281.88;5111844;28;19932;-87
2022/08/20 05:14:07;;;;;;;;;;;;;;;17.57;48.89;100281.69;5099257;28;20409;-88
2022/08/20 05:16:39;;;;;;;;;;;;;;;17.61;48.84;100291.03;5101118;28;19935;-86
2022/08/20 05:19:07;;;;;;;;;;;;;;;17.65;48.60;100289.44;5101727;28;19935;-84
2022/08/20 05:21:34;;;;;;;;;;;;;;;17.61;48.53;100283.66;5098895;28;19928;-86
2022/08/20 05:24:04;;;;;;;;;;;;;;;17.51;47.99;100283.56;5083698;28;19932;-89
2022/08/20 05:26:32;;;;;;;;;;;;;;;17.50;48.06;100281.94;5085563;28;20230;-88
2022/08/20 05:28:59;;;;;;;;;;;;;;;17.58;48.00;100294.28;5085389;28;20563;-84
2022/08/20 05:31:27;;;;;;;;;;;;;;;17.62;47.90;100288.00;5105158;28;19935;-84
2022/08/20 05:34:02;;;;;;;;;;;;;;;17.67;47.83;100296.28;5098423;28;19967;-86
2022/08/20 05:36:29;;;;;;;;;;;;;;;17.67;47.94;100293.53;5101217;28;19935;-87
2022/08/20 05:38:56;;;;;;;;;;;;;;;17.66;48.01;100299.25;5083084;28;19928;-86
2022/08/20 05:41:23;;;;;;;;;;;;;;;17.64;47.89;100295.94;5108059;28;19949;-89
2022/08/20 05:43:59;;;;;;;;;;;;;;;17.70;47.81;100303.94;5104310;28;20008;-88
2022/08/20 05:46:26;;;;;;;;;;;;;;;17.76;47.50;100305.63;5099698;28;19932;-90
2022/08/20 05:48:53;;;;;;;;;;;;;;;17.79;47.09;100301.53;5081038;28;19928;-87
2022/08/20 05:51:20;;;;;;;;;;;;;;;17.80;47.28;100303.25;5083474;28;19938;-88
2022/08/20 05:53:47;;;;;;;;;;;;;;;17.88;47.18;100300.00;5086330;28;19992;-89
2022/08/20 05:56:14;;;;;;;;;;;;;;;17.97;46.62;100290.22;5101704;28;19973;-87
2022/08/20 05:58:41;;;;;;;;;;;;;;;18.07;46.37;100286.75;5102924;28;19932;-86
2022/08/20 06:01:08;;;;;;;;;;;;;;;18.17;46.01;100292.28;5097548;28;20003;-89
2022/08/20 06:06:21;;;;;;;;;;;;;;;18.23;45.74;100271.31;5111005;28;20381;-84
2022/08/20 06:09:08;;;;;;;;;;;;;;;18.21;45.68;100289.88;5093433;28;20189;-86
2022/08/20 06:11:35;;;;;;;;;;;;;;;18.21;45.92;100292.59;5113370;28;19928;-85
2022/08/20 06:14:03;;;;;;;;;;;;;;;18.31;45.36;100309.06;5097848;28;19927;-86
2022/08/20 06:16:30;;;;;;;;;;;;;;;18.37;45.37;100307.16;5079701;28;20024;-86
2022/08/20 06:18:57;;;;;;;;;;;;;;;18.44;45.24;100301.47;5112937;28;19927;-86
2022/08/20 06:21:25;;;;;;;;;;;;;;;18.59;44.55;100302.38;5094584;28;19927;-85
2022/08/20 06:23:52;;;;;;;;;;;;;;;18.69;44.37;100290.66;5112348;28;19932;-85
2022/08/20 06:26:24;;;;;;;;;;;;;;;18.69;44.16;100292.59;5112951;28;19928;-87
2022/08/20 06:29:00;;;;;;;;;;;;;;;18.71;44.32;100290.38;5112454;28;19981;-85
2022/08/20 06:31:27;;;;;;;;;;;;;;;18.65;44.02;100284.06;5112981;28;19927;-86
2022/08/20 06:33:54;;;;;;;;;;;;;;;18.61;44.16;100292.00;5094448;28;19928;-85
2022/08/20 06:36:21;;;;;;;;;;;;;;;18.62;44.32;100287.34;5112706;28;20390;-88
2022/08/20 06:38:48;;;;;;;;;;;;;;;18.66;44.18;100280.25;5094112;28;19975;-86
2022/08/20 06:41:16;;;;;;;;;;;;;;;18.56;44.14;100285.66;5112176;28;20384;-88
2022/08/20 06:43:43;;;;;;;;;;;;;;;18.45;44.44;100282.06;5113084;28;19958;-88
2022/08/20 06:46:09;;;;;;;;;;;;;;;18.26;44.58;100281.69;5112885;28;19932;-87
2022/08/20 06:48:37;;;;;;;;;;;;;;;18.29;44.87;100269.41;5113283;28;19931;-87
2022/08/20 06:51:05;;;;;;;;;;;;;;;18.32;44.89;100271.63;5095111;28;20451;-86
2022/08/20 06:53:32;;;;;;;;;;;;;;;18.31;44.77;100269.97;5113195;28;20014;-87
2022/08/20 06:55:59;;;;;;;;;;;;;;;18.34;44.73;100259.31;5112934;28;20022;-87
2022/08/20 06:58:26;;;;;;;;;;;;;;;18.40;44.60;100263.72;5094650;28;19927;-87
2022/08/20 07:01:06;;;;;;;;;;;;;;;18.49;44.56;100261.31;5116897;28;20184;-85
2022/08/20 07:03:37;;;;;;;;;;;;;;;18.61;44.23;100264.66;5117223;28;19934;-88
2022/08/20 07:06:04;;;;;;;;;;;;;;;18.68;44.12;100269.03;5113658;28;19928;-86
2022/08/20 07:08:31;;;;;;;;;;;;;;;18.77;43.85;100262.00;5096281;28;19977;-87
2022/08/20 07:10:58;;;;;;;;;;;;;;;18.72;43.67;100253.75;5112566;28;19928;-86
2022/08/20 07:13:25;;;;;;;;;;;;;;;18.56;43.62;100259.16;5094235;28;19932;-88
2022/08/20 07:15:53;;;;;;;;;;;;;;;18.38;43.88;100265.91;5112375;28;19928;-88
2022/08/20 07:18:21;;;;;;;;;;;;;;;18.26;44.25;100272.69;5112112;28;19963;-87
2022/08/20 07:20:55;;;;;;;;;;;;;;;18.18;44.34;100269.34;5111864;28;19928;-86
2022/08/20 07:23:23;;;;;;;;;;;;;;;18.13;44.53;100268.50;5112068;28;19927;-87
2022/08/20 07:25:50;;;;;;;;;;;;;;;18.04;44.51;100261.88;5094058;28;19932;-86
2022/08/20 07:28:19;;;;;;;;;;;;;;;17.97;44.56;100264.84;5094958;28;19996;-88
2022/08/20 07:33:41;;;;;;;;;;;;;;;17.97;44.88;100270.28;5112954;28;20336;-88
2022/08/20 07:36:10;;;;;;;;;;;;;;;17.96;44.87;100279.59;5112391;28;19931;-88
2022/08/20 07:38:37;;;;;;;;;;;;;;;17.98;44.85;100289.16;5112630;28;19981;-88
2022/08/20 07:41:05;;;;;;;;;;;;;;;18.06;45.12;100287.84;5096490;28;19935;-87
2022/08/20 07:43:32;;;;;;;;;;;;;;;18.07;45.04;100278.56;5097501;28;19927;-88
2022/08/20 07:46:00;;;;;;;;;;;;;;;18.29;44.80;100288.53;5116958;28;19987;-88
2022/08/20 07:48:29;;;;;;;;;;;;;;;18.47;44.57;100290.00;5095918;28;20305;-88
2022/08/20 07:50:59;;;;;;;;;;;;;;;18.73;44.24;100293.66;5111840;28;19954;-87
2022/08/20 07:53:26;;;;;;;;;;;;;;;18.79;43.97;100284.44;5114997;28;20376;-87
2022/08/20 07:55:59;;;;;;;;;;;;;;;18.85;43.79;100291.56;5098132;28;20071;-88
2022/08/20 07:58:26;;;;;;;;;;;;;;;18.96;43.53;100289.69;5097425;28;19928;-87
2022/08/20 08:01:00;;;;;;;;;;;;;;;19.00;43.32;100282.59;5115745;28;20421;-87
2022/08/20 08:03:28;;;;;;;;;;;;;;;19.07;43.17;100294.09;5115988;28;20041;-87
2022/08/20 08:06:15;;;;;;;;;;;;;;;19.08;43.07;100297.66;5115238;28;19981;-85
2022/08/20 08:09:05;;;;;;;;;;;;;;;19.05;43.10;100291.63;5111688;28;20026;-86
2022/08/20 08:11:33;;;;;;;;;;;;;;;19.03;43.32;100302.00;5077083;28;19973;-87
2022/08/20 08:14:00;;;;;;;;;;;;;;;18.97;43.26;100308.56;5079805;28;19935;-87
2022/08/20 08:16:46;;;;;;;;;;;;;;;18.85;43.16;100297.03;5083439;28;19965;-87
2022/08/20 08:19:13;;;;;;;;;;;;;;;18.77;43.12;100305.75;5113085;28;19934;-88
2022/08/20 08:21:40;;;;;;;;;;;;;;;18.69;43.45;100314.47;5114082;28;19932;-87
2022/08/20 08:24:07;;;;;;;;;;;;;;;18.66;43.61;100312.22;5096625;28;19974;-87
2022/08/20 08:26:34;;;;;;;;;;;;;;;18.60;43.82;100305.91;5095000;28;19974;-87
2022/08/20 08:29:01;;;;;;;;;;;;;;;18.54;43.88;100313.28;5076789;28;20447;-88
2022/08/20 08:31:28;;;;;;;;;;;;;;;18.47;43.64;100303.69;5094720;28;20048;-87
2022/08/20 08:33:55;;;;;;;;;;;;;;;18.42;43.89;100302.53;5094231;28;19935;-87
2022/08/20 08:36:23;;;;;;;;;;;;;;;18.45;44.10;100300.38;5094516;28;19973;-87
2022/08/20 08:38:50;;;;;;;;;;;;;;;18.47;43.73;100296.28;5076232;28;20460;-88
2022/08/20 08:41:19;;;;;;;;;;;;;;;18.53;43.78;100295.22;5094754;28;19928;-87
2022/08/20 08:43:48;;;;;;;;;;;;;;;18.61;43.79;100299.38;5095119;28;20390;-87
2022/08/20 08:46:17;;;;;;;;;;;;;;;18.68;43.73;100293.66;5061215;28;19955;-89
2022/08/20 08:48:46;;;;;;;;;;;;;;;18.80;43.68;100299.75;5103063;28;19928;-87
2022/08/20 08:51:15;;;;;;;;;;;;;;;18.87;43.63;100302.25;5094419;28;19928;-88
2022/08/20 08:53:45;;;;;;;;;;;;;;;18.84;43.69;100301.69;5094403;28;20406;-88
2022/08/20 08:56:16;;;;;;;;;;;;;;;18.79;43.92;100309.06;5076021;28;19981;-88
2022/08/20 08:58:43;;;;;;;;;;;;;;;18.70;44.31;100310.63;5076410;28;19963;-89
2022/08/20 09:01:11;;;;;;;;;;;;;;;18.59;44.76;100309.75;5083116;28;19928;-86
2022/08/20 09:03:58;;;;;;;;;;;;;;;18.49;45.27;100315.16;5055600;28;19928;-85
2022/08/20 09:06:27;;;;;;;;;;;;;;;18.42;45.77;100318.13;5078210;28;19928;-87
2022/08/20 09:09:02;;;;;;;;;;;;;;;18.37;46.29;100320.84;5085783;28;19928;-84
2022/08/20 09:11:29;;;;;;;;;;;;;;;18.26;47.04;100305.47;4736165;28;9999621;-86
2022/08/20 09:13:56;;;;;;;;;;;;;;;18.18;47.69;100321.28;5090571;28;20438;-86
2022/08/20 09:16:24;;;;;;;;;;;;;;;18.09;48.00;100311.91;5074841;28;20367;-85
2022/08/20 09:18:53;;;;;;;;;;;;;;;18.01;48.57;100323.31;5108873;28;20018;-84
2022/08/20 09:21:20;;;;;;;;;;;;;;;17.98;49.35;100310.19;5074614;28;20393;-85
2022/08/20 09:23:47;;;;;;;;;;;;;;;17.95;49.61;100306.09;5086839;28;20610;-86
2022/08/20 09:26:14;;;;;;;;;;;;;;;17.92;50.09;100311.22;5067431;28;19928;-86
2022/08/20 09:28:41;;;;;;;;;;;;;;;17.90;50.38;100307.94;5081338;28;19939;-86
2022/08/20 09:31:23;;;;;;;;;;;;;;;17.89;50.67;100309.03;5092489;28;20403;-88
2022/08/20 09:33:50;;;;;;;;;;;;;;;17.89;50.55;100303.56;5109735;28;19967;-85
2022/08/20 09:36:17;;;;;;;;;;;;;;;17.88;51.53;100307.41;5101853;28;19966;-89
2022/08/20 09:38:58;;;;;;;;;;;;;;;17.80;51.83;100302.38;5088879;28;19928;-87
2022/08/20 09:41:25;;;;;;;;;;;;;;;17.70;52.38;100298.47;5091183;28;19927;-85
2022/08/20 09:43:53;;;;;;;;;;;;;;;17.65;52.67;100290.25;5085684;28;19963;-90
2022/08/20 09:46:20;;;;;;;;;;;;;;;17.63;53.36;100283.41;5099090;28;19928;-86
2022/08/20 09:48:53;;;;;;;;;;;;;;;17.55;53.84;100274.59;5098815;28;20526;-89
2022/08/20 09:51:21;;;;;;;;;;;;;;;17.57;53.82;100274.31;5048400;28;20042;-89
2022/08/20 09:53:48;;;;;;;;;;;;;;;17.54;53.95;100263.94;5106197;28;19928;-86
2022/08/20 09:56:29;;;;;;;;;;;;;;;17.45;54.57;100260.06;5042518;28;19982;-90
2022/08/20 09:58:56;;;;;;;;;;;;;;;17.52;54.15;100253.28;5090710;28;19927;-89
2022/08/20 10:01:28;;;;;;;;;;;;;;;17.53;54.17;100248.66;5089506;28;19927;-88
2022/08/20 10:03:55;;;;;;;;;;;;;;;17.49;54.45;100261.97;5089875;28;20030;-88
2022/08/20 10:06:22;;;;;;;;;;;;;;;17.49;54.92;100266.63;5091508;28;20439;-87
2022/08/20 10:08:49;;;;;;;;;;;;;;;17.50;55.32;100273.75;5091640;28;19934;-88
2022/08/20 10:11:16;;;;;;;;;;;;;;;17.52;55.34;100274.28;5108321;27;19928;-89
2022/08/20 10:13:44;;;;;;;;;;;;;;;17.51;55.47;100278.09;5109828;28;20388;-89
2022/08/20 10:16:11;;;;;;;;;;;;;;;17.51;55.91;100280.81;5104844;28;19974;-87
2022/08/20 10:18:37;;;;;;;;;;;;;;;17.49;56.08;100286.53;5106049;28;19928;-87
2022/08/20 10:21:09;;;;;;;;;;;;;;;17.48;55.74;100289.53;5097394;28;19964;-87
2022/08/20 10:23:36;;;;;;;;;;;;;;;17.49;55.64;100283.81;5072327;28;19928;-88
2022/08/20 10:26:03;;;;;;;;;;;;;;;17.56;55.88;100283.59;5103727;28;19932;-87
2022/08/20 10:28:30;;;;;;;;;;;;;;;17.64;55.34;100288.59;5056192;28;19971;-89
2022/08/20 10:30:57;;;;;;;;;;;;;;;17.74;55.18;100285.13;5086838;28;19932;-89
2022/08/20 10:33:24;;;;;;;;;;;;;;;17.67;54.65;100279.91;5102544;28;19927;-88
2022/08/20 10:35:51;;;;;;;;;;;;;;;17.66;54.64;100270.03;5081660;28;19935;-89
2022/08/20 10:38:25;;;;;;;;;;;;;;;17.68;54.48;100280.72;5082261;28;19927;-89
2022/08/20 10:40:52;;;;;;;;;;;;;;;17.77;54.25;100271.78;5071290;28;19928;-90
2022/08/20 10:43:19;;;;;;;;;;;;;;;17.82;54.23;100278.38;5092178;28;19935;-88
2022/08/20 10:45:46;;;;;;;;;;;;;;;17.83;53.58;100278.13;5057527;28;20051;-88
2022/08/20 10:48:13;;;;;;;;;;;;;;;17.88;53.47;100283.63;5075416;28;19950;-88
2022/08/20 10:50:46;;;;;;;;;;;;;;;17.93;53.33;100275.47;5098557;28;19935;-89
2022/08/20 10:53:13;;;;;;;;;;;;;;;17.95;53.12;100275.19;5085124;28;19958;-88
2022/08/20 10:55:40;;;;;;;;;;;;;;;18.00;53.14;100275.22;5057934;28;20008;-88
2022/08/20 10:58:07;;;;;;;;;;;;;;;18.07;52.52;100269.56;5101391;28;20006;-89
2022/08/20 11:00:37;;;;;;;;;;;;;;;18.10;52.30;100264.38;5075665;28;19928;-88
2022/08/20 11:03:04;;;;;;;;;;;;;;;18.23;52.22;100270.47;5103712;28;19928;-88
2022/08/20 11:05:31;;;;;;;;;;;;;;;18.34;51.48;100263.97;5096140;28;19967;-88
2022/08/20 11:07:59;;;;;;;;;;;;;;;18.51;50.59;100250.09;5102403;28;19935;-89
2022/08/20 11:10:27;;;;;;;;;;;;;;;18.67;49.88;100251.81;5053225;28;20316;-87
2022/08/20 11:12:55;;;;;;;;;;;;;;;18.88;49.61;100249.19;5104070;28;19936;-87
2022/08/20 11:15:22;;;;;;;;;;;;;;;19.11;48.67;100245.13;5099729;28;19942;-91
2022/08/20 11:17:49;;;;;;;;;;;;;;;19.29;48.20;100236.38;5063477;28;19932;-88
2022/08/20 11:20:17;;;;;;;;;;;;;;;19.49;47.72;100230.09;5075969;28;19935;-90
2022/08/20 11:22:44;;;;;;;;;;;;;;;19.57;46.48;100221.38;5085484;28;19932;-89
2022/08/20 11:25:11;;;;;;;;;;;;;;;19.61;46.04;100218.88;5106586;28;19928;-89
2022/08/20 11:27:45;;;;;;;;;;;;;;;19.73;45.85;100222.19;5088394;28;19954;-87
2022/08/20 11:30:13;;;;;;;;;;;;;;;19.88;46.10;100221.38;5085286;28;20035;-88
2022/08/20 11:32:40;;;;;;;;;;;;;;;19.93;46.31;100210.41;5077975;28;20014;-90
2022/08/20 11:35:08;;;;;;;;;;;;;;;19.89;46.33;100209.28;5110814;28;19928;-90
2022/08/20 11:37:55;;;;;;;;;;;;;;;19.78;46.02;100200.28;5110557;28;19928;-90
2022/08/20 11:40:22;;;;;;;;;;;;;;;19.77;45.71;100208.75;5097613;28;19932;-88
2022/08/20 11:43:05;;;;;;;;;;;;;;;19.70;45.74;100200.84;5059836;28;20011;-89
2022/08/20 11:45:47;;;;;;;;;;;;;;;19.65;45.45;100195.34;5079196;28;19936;-87
2022/08/20 11:48:15;;;;;;;;;;;;;;;19.66;45.49;100199.72;5096936;28;19963;-86
2022/08/20 11:50:42;;;;;;;;;;;;;;;19.70;45.09;100192.63;5096807;28;19932;-87
2022/08/20 11:53:09;;;;;;;;;;;;;;;19.76;44.82;100197.00;5095580;28;20454;-87
2022/08/20 11:55:37;;;;;;;;;;;;;;;19.75;44.73;100189.88;5060369;28;20514;-89
2022/08/20 11:58:04;;;;;;;;;;;;;;;19.81;44.49;100188.75;5082941;28;19971;-86
2022/08/20 12:00:31;;;;;;;;;;;;;;;19.85;44.20;100194.50;5092463;28;19928;-86
2022/08/20 12:03:04;;;;;;;;;;;;;;;19.99;43.84;100200.25;5093259;28;19928;-85
2022/08/20 12:05:34;;;;;;;;;;;;;;;20.08;43.85;100191.16;5091495;28;19970;-88
2022/08/20 12:08:01;;;;;;;;;;;;;;;20.16;43.73;100189.78;5079727;28;19947;-89
2022/08/20 12:10:28;;;;;;;;;;;;;;;20.28;43.58;100189.44;5080743;28;20399;-87
2022/08/20 12:12:55;;;;;;;;;;;;;;;20.44;43.25;100176.50;5073703;28;19935;-88
2022/08/20 12:15:24;;;;;;;;;;;;;;;20.70;43.15;100183.50;5073255;28;20425;-89
2022/08/20 12:17:51;;;;;;;;;;;;;;;20.99;42.28;100174.56;5078705;28;19928;-87
2022/08/20 12:20:18;;;;;;;;;;;;;;;21.24;42.08;100175.47;5077736;28;19977;-88
2022/08/20 12:22:47;;;;;;;;;;;;;;;21.25;41.93;100172.44;5069298;28;19983;-88
2022/08/20 12:25:17;;;;;;;;;;;;;;;21.11;41.20;100171.44;4720403;28;10000005;-87
2022/08/20 12:27:44;;;;;;;;;;;;;;;21.03;40.80;100169.31;5053879;28;19929;-87
2022/08/20 12:30:13;;;;;;;;;;;;;;;20.89;40.55;100166.38;5070038;28;19929;-85
2022/08/20 12:32:41;;;;;;;;;;;;;;;20.74;40.81;100159.91;5036006;28;19997;-86
2022/08/20 12:35:08;;;;;;;;;;;;;;;20.53;40.54;100159.19;5069438;28;19935;-88
2022/08/20 12:37:38;;;;;;;;;;;;;;;20.51;40.51;100146.88;5070519;28;20019;-86
2022/08/20 12:40:06;;;;;;;;;;;;;;;20.44;40.22;100149.09;5079957;28;19928;-85
2022/08/20 12:42:33;;;;;;;;;;;;;;;20.40;39.80;100139.78;5069370;28;20404;-89
2022/08/20 12:45:00;;;;;;;;;;;;;;;20.37;39.25;100141.16;5074897;28;19928;-84
2022/08/20 12:47:30;;;;;;;;;;;;;;;20.30;38.68;100140.66;5079195;28;19935;-83
2022/08/20 12:50:07;;;;;;;;;;;;;;;20.17;38.64;100144.81;5083004;28;19928;-86
2022/08/20 12:52:35;;;;;;;;;;;;;;;20.13;38.36;100130.88;5071127;28;20391;-87